Mega Smeralda — ICIU — position and weather

sailwx.info

Track history (hours):
 
Tides and Currents Weather Stations Pressure Air Temp Water Temp Dewpoint Dewpoint Depression Visibility Wind Speed Wind Dir Waves Ship Positions

Mega Smeralda

Last reported at 2016-May-01 09:18 UTC. Time now 2016-May-01 11:48 UTC.
Position N 42°54' E 009°47'.

Length 171 m; draft 6.4 m.

Type: Passenger vessel. MMSI: 247228600.

Date/timePositionNaut miles runAvg speedWind from/ knotsBaromVisibWave heightAir tempDewpointWater temp
2016-May-01 09:18N 42°54' E 009°47'1318.0
2016-May-01 08:33N 43°03' E 009°60'1918.8
2016-May-01 07:33N 43°21' E 010°08'1413.8
2016-May-01 06:34N 43°33' E 010°18'0 0.1
2016-May-01 05:32N 43°33' E 010°18'8 8.2
2016-May-01 04:33N 43°26' E 010°12'79 2.8
2016-Apr-30 00:23N 42°08' E 009°51'3217.3
2016-Apr-29 22:31N 42°40' E 009°58'1717.3
2016-Apr-29 21:31N 42°57' E 010°02'1717.6
2016-Apr-29 20:33N 43°14' E 010°07'1817.7
2016-Apr-29 19:33N 43°31' E 010°13'4 3.9
2016-Apr-29 18:33N 43°33' E 010°18'0 0.0
2016-Apr-29 17:33N 43°33' E 010°18'0 0.0
2016-Apr-29 16:33N 43°33' E 010°18'2 2.3
2016-Apr-29 15:33N 43°31' E 010°16'1918.6
2016-Apr-29 14:33N 43°14' E 010°05'1918.9
2016-Apr-29 13:33N 42°57' E 009°55'24 8.0
2016-Apr-29 10:32N 42°42' E 009°29'1818.7
2016-Apr-29 09:33N 42°54' E 009°48'1918.7
2016-Apr-29 08:33N 43°09' E 010°02'1919.4
2016-Apr-29 07:33N 43°28' E 010°11'8 7.5
2016-Apr-29 06:33N 43°33' E 010°18'0 0.0
2016-Apr-29 05:33N 43°33' E 010°18'0 0.5
2016-Apr-29 04:33N 43°33' E 010°17'1414.0
2016-Apr-29 03:34N 43°20' E 010°10'1616.4
2016-Apr-29 02:33N 43°04' E 010°04'1616.3
2016-Apr-29 01:33N 42°48' E 009°58'1716.5
2016-Apr-29 00:32N 42°31' E 009°57'29 1.1
2016-Apr-27 22:34N 42°60' E 010°03'1918.8
2016-Apr-27 21:34N 43°18' E 010°09'1515.3
2016-Apr-27 20:34N 43°32' E 010°17'1 1.1
2016-Apr-27 19:31N 43°33' E 010°18'0 0.0
2016-Apr-27 18:31N 43°33' E 010°18'0 0.0
2016-Apr-27 17:33N 43°33' E 010°18'7 6.6
2016-Apr-27 16:33N 43°28' E 010°12'1716.5
2016-Apr-27 15:33N 43°16' E 009°56'24 4.7
2016-Apr-27 10:29N 42°53' E 009°47'1617.6
2016-Apr-27 09:34N 43°06' E 010°00'1717.4
2016-Apr-27 08:34N 43°22' E 010°08'1312.5
2016-Apr-27 07:34N 43°33' E 010°18'0 0.2
2016-Apr-27 06:33N 43°33' E 010°18'0 0.0
2016-Apr-27 05:33N 43°33' E 010°18'4 3.9
2016-Apr-27 04:33N 43°30' E 010°14'1211.8
2016-Apr-27 03:33N 43°23' E 010°02'1515.5
2016-Apr-27 02:34N 43°13' E 009°45'21 0.7
2016-Apr-25 21:27N 42°56' E 010°02'1516.9
2016-Apr-25 20:33N 43°11' E 010°07'1716.7
2016-Apr-25 19:33N 43°27' E 010°12'8 7.6
2016-Apr-25 18:33N 43°33' E 010°18'0 0.0
2016-Apr-25 17:33N 43°33' E 010°18'0 0.0
2016-Apr-25 16:33N 43°33' E 010°18'2 2.2
2016-Apr-25 15:33N 43°32' E 010°16'1817.9
2016-Apr-25 14:34N 43°15' E 010°06'25 1.4
2016-Apr-24 20:27N 42°51' E 009°60'15 1.6
2016-Apr-24 11:12N 42°49' E 010°20'7 9.8
2016-Apr-24 10:29N 42°51' E 010°11'18515.5
2016-Apr-23 22:31N 43°04' E 005°58'3 3.3
2016-Apr-23 21:32N 43°07' E 005°56'15312.7
2016-Apr-23 09:28N 43°03' E 009°25'15113.4
2016-Apr-22 22:11N 43°03' E 005°59'4 6.7
2016-Apr-22 21:33N 43°07' E 005°56'1 1.0
2016-Apr-22 20:33N 43°06' E 005°55'13518.4
2016-Apr-22 13:13N 42°40' E 008°56'13316.8
2016-Apr-22 05:18N 43°04' E 005°58'3 4.2
2016-Apr-22 04:33N 43°07' E 005°56'4413.5
2016-Apr-22 01:17N 42°58' E 006°55'3919.6
2016-Apr-21 23:18N 42°60' E 007°48'1419.4
2016-Apr-21 22:33N 43°00' E 008°08'1918.9
2016-Apr-21 21:33N 43°01' E 008°34'1918.8
2016-Apr-21 20:34N 43°03' E 008°59'1918.9
2016-Apr-21 19:33N 43°04' E 009°25'1818.2
2016-Apr-21 18:34N 42°46' E 009°31'5 2.2
2016-Apr-21 16:15N 42°42' E 009°27'1014.6
2016-Apr-21 15:33N 42°51' E 009°34'1717.3
2016-Apr-21 14:33N 43°07' E 009°43'1918.6
2016-Apr-21 13:34N 43°21' E 009°59'1716.8
2016-Apr-21 12:33N 43°32' E 010°16'1 1.3
2016-Apr-21 11:33N 43°33' E 010°18'0 0.0
2016-Apr-21 10:33N 43°33' E 010°18'0 0.0
2016-Apr-21 09:33N 43°33' E 010°18'  
Track history (hours):
 
Tides and Currents Weather Stations Pressure Air Temp Water Temp Dewpoint Dewpoint Depression Visibility Wind Speed Wind Dir Waves Ship Positions

Mega Smeralda

Last reported at 2016-May-01 09:18 UTC. Time now 2016-May-01 11:48 UTC.
Position N 42°54' E 009°47'.

Length 171 m; draft 6.4 m.

Type: Passenger vessel. MMSI: 247228600.

Date/timePositionNaut miles runAvg speedWind from/ knotsBaromVisibWave heightAir tempDewpointWater temp
2016-May-01 09:18N 42°54' E 009°47'1318.0
2016-May-01 08:33N 43°03' E 009°60'1918.8
2016-May-01 07:33N 43°21' E 010°08'1413.8
2016-May-01 06:34N 43°33' E 010°18'0 0.1
2016-May-01 05:32N 43°33' E 010°18'8 8.2
2016-May-01 04:33N 43°26' E 010°12'79 2.8
2016-Apr-30 00:23N 42°08' E 009°51'3217.3
2016-Apr-29 22:31N 42°40' E 009°58'1717.3
2016-Apr-29 21:31N 42°57' E 010°02'1717.6
2016-Apr-29 20:33N 43°14' E 010°07'1817.7
2016-Apr-29 19:33N 43°31' E 010°13'4 3.9
2016-Apr-29 18:33N 43°33' E 010°18'0 0.0
2016-Apr-29 17:33N 43°33' E 010°18'0 0.0
2016-Apr-29 16:33N 43°33' E 010°18'2 2.3
2016-Apr-29 15:33N 43°31' E 010°16'1918.6
2016-Apr-29 14:33N 43°14' E 010°05'1918.9
2016-Apr-29 13:33N 42°57' E 009°55'24 8.0
2016-Apr-29 10:32N 42°42' E 009°29'1818.7
2016-Apr-29 09:33N 42°54' E 009°48'1918.7
2016-Apr-29 08:33N 43°09' E 010°02'1919.4
2016-Apr-29 07:33N 43°28' E 010°11'8 7.5
2016-Apr-29 06:33N 43°33' E 010°18'0 0.0
2016-Apr-29 05:33N 43°33' E 010°18'0 0.5
2016-Apr-29 04:33N 43°33' E 010°17'1414.0
2016-Apr-29 03:34N 43°20' E 010°10'1616.4
2016-Apr-29 02:33N 43°04' E 010°04'1616.3
2016-Apr-29 01:33N 42°48' E 009°58'1716.5
2016-Apr-29 00:32N 42°31' E 009°57'29 1.1
2016-Apr-27 22:34N 42°60' E 010°03'1918.8
2016-Apr-27 21:34N 43°18' E 010°09'1515.3
2016-Apr-27 20:34N 43°32' E 010°17'1 1.1
2016-Apr-27 19:31N 43°33' E 010°18'0 0.0
2016-Apr-27 18:31N 43°33' E 010°18'0 0.0
2016-Apr-27 17:33N 43°33' E 010°18'7 6.6
2016-Apr-27 16:33N 43°28' E 010°12'1716.5
2016-Apr-27 15:33N 43°16' E 009°56'24 4.7
2016-Apr-27 10:29N 42°53' E 009°47'1617.6
2016-Apr-27 09:34N 43°06' E 010°00'1717.4
2016-Apr-27 08:34N 43°22' E 010°08'1312.5
2016-Apr-27 07:34N 43°33' E 010°18'0 0.2
2016-Apr-27 06:33N 43°33' E 010°18'0 0.0
2016-Apr-27 05:33N 43°33' E 010°18'4 3.9
2016-Apr-27 04:33N 43°30' E 010°14'1211.8
2016-Apr-27 03:33N 43°23' E 010°02'1515.5
2016-Apr-27 02:34N 43°13' E 009°45'21 0.7
2016-Apr-25 21:27N 42°56' E 010°02'1516.9
2016-Apr-25 20:33N 43°11' E 010°07'1716.7
2016-Apr-25 19:33N 43°27' E 010°12'8 7.6
2016-Apr-25 18:33N 43°33' E 010°18'0 0.0
2016-Apr-25 17:33N 43°33' E 010°18'0 0.0
2016-Apr-25 16:33N 43°33' E 010°18'2 2.2
2016-Apr-25 15:33N 43°32' E 010°16'1817.9
2016-Apr-25 14:34N 43°15' E 010°06'25 1.4
2016-Apr-24 20:27N 42°51' E 009°60'15 1.6
2016-Apr-24 11:12N 42°49' E 010°20'7 9.8
2016-Apr-24 10:29N 42°51' E 010°11'18515.5
2016-Apr-23 22:31N 43°04' E 005°58'3 3.3
2016-Apr-23 21:32N 43°07' E 005°56'15312.7
2016-Apr-23 09:28N 43°03' E 009°25'15113.4
2016-Apr-22 22:11N 43°03' E 005°59'4 6.7
2016-Apr-22 21:33N 43°07' E 005°56'1 1.0
2016-Apr-22 20:33N 43°06' E 005°55'13518.4
2016-Apr-22 13:13N 42°40' E 008°56'13316.8
2016-Apr-22 05:18N 43°04' E 005°58'3 4.2
2016-Apr-22 04:33N 43°07' E 005°56'4413.5
2016-Apr-22 01:17N 42°58' E 006°55'3919.6
2016-Apr-21 23:18N 42°60' E 007°48'1419.4
2016-Apr-21 22:33N 43°00' E 008°08'1918.9
2016-Apr-21 21:33N 43°01' E 008°34'1918.8
2016-Apr-21 20:34N 43°03' E 008°59'1918.9
2016-Apr-21 19:33N 43°04' E 009°25'1818.2
2016-Apr-21 18:34N 42°46' E 009°31'5 2.2
2016-Apr-21 16:15N 42°42' E 009°27'1014.6
2016-Apr-21 15:33N 42°51' E 009°34'1717.3
2016-Apr-21 14:33N 43°07' E 009°43'1918.6
2016-Apr-21 13:34N 43°21' E 009°59'1716.8
2016-Apr-21 12:33N 43°32' E 010°16'1 1.3
2016-Apr-21 11:33N 43°33' E 010°18'0 0.0
2016-Apr-21 10:33N 43°33' E 010°18'0 0.0
2016-Apr-21 09:33N 43°33' E 010°18'  

Dump ship's entire track history